createdAt,value
2018-12-13T00:01:23.564Z,7.35
2018-12-13T00:03:51.918Z,7.17
2018-12-13T00:06:20.315Z,7.25
2018-12-13T00:08:48.637Z,7.45
2018-12-13T00:11:16.973Z,6.78
2018-12-13T00:13:45.441Z,6.75
2018-12-13T00:16:13.811Z,6.95
2018-12-13T00:18:42.195Z,7.83
2018-12-13T00:21:10.527Z,7.33
2018-12-13T00:23:38.884Z,6.53
2018-12-13T00:26:07.305Z,6.92
2018-12-13T00:28:35.643Z,7.53
2018-12-13T00:31:03.983Z,7.67
2018-12-13T00:33:33.040Z,8.03
2018-12-13T00:36:01.376Z,7.12
2018-12-13T00:38:30.265Z,7.42
2018-12-13T00:40:58.767Z,7.58
2018-12-13T00:43:27.165Z,6.87
2018-12-13T00:45:55.512Z,6.85
2018-12-13T00:48:23.895Z,6.37
2018-12-13T00:50:52.232Z,7.80
2018-12-13T00:53:20.688Z,6.03
2018-12-13T00:55:49.193Z,7.95
2018-12-13T00:58:17.545Z,7.12
2018-12-13T01:00:45.892Z,7.08
2018-12-13T01:03:14.534Z,8.35
2018-12-13T01:05:43.020Z,7.65
2018-12-13T01:08:11.461Z,7.22
2018-12-13T01:10:39.880Z,8.93
2018-12-13T01:13:08.223Z,7.97
2018-12-13T01:15:36.591Z,7.03
2018-12-13T01:18:04.951Z,7.90
2018-12-13T01:20:33.334Z,7.60
2018-12-13T01:23:01.694Z,7.45
2018-12-13T01:25:30.139Z,7.15
2018-12-13T01:27:58.679Z,7.15
2018-12-13T01:30:27.005Z,7.62
2018-12-13T01:32:55.379Z,7.62
2018-12-13T01:35:23.799Z,7.70
2018-12-13T01:37:52.165Z,7.45
2018-12-13T01:40:20.539Z,7.95
2018-12-13T01:42:48.882Z,8.43
2018-12-13T01:45:17.264Z,8.60
2018-12-13T01:47:45.716Z,7.97
2018-12-13T01:50:14.308Z,7.70
2018-12-13T01:52:42.659Z,7.87
2018-12-13T01:55:11.804Z,8.40
2018-12-13T01:57:40.148Z,7.67
2018-12-13T02:00:08.478Z,7.37
2018-12-13T02:02:36.911Z,7.28
2018-12-13T02:05:05.353Z,7.65
2018-12-13T02:07:33.729Z,8.45
2018-12-13T02:10:02.164Z,8.08
2018-12-13T02:12:30.507Z,8.50
2018-12-13T02:14:58.885Z,9.13
2018-12-13T02:17:27.228Z,8.38
2018-12-13T02:19:55.601Z,8.20
2018-12-13T02:22:24.139Z,8.15
2018-12-13T02:24:52.470Z,8.63
2018-12-13T02:27:20.820Z,8.55
2018-12-13T02:29:49.178Z,8.13
2018-12-13T02:32:17.523Z,8.40
2018-12-13T02:34:45.867Z,7.33
2018-12-13T02:37:14.356Z,7.95
2018-12-13T02:39:42.704Z,8.78
2018-12-13T02:42:11.097Z,8.18
2018-12-13T02:44:39.448Z,9.25
2018-12-13T02:47:07.826Z,8.45
2018-12-13T02:49:36.190Z,8.43
2018-12-13T02:52:04.544Z,8.50
2018-12-13T02:54:32.891Z,8.90
2018-12-13T02:57:01.265Z,7.95
2018-12-13T02:59:29.615Z,8.50
2018-12-13T03:01:58.012Z,8.75
2018-12-13T03:04:26.834Z,7.60
2018-12-13T03:06:55.188Z,8.75
2018-12-13T03:09:23.524Z,8.58
2018-12-13T03:11:51.855Z,8.10
2018-12-13T03:14:20.222Z,8.78
2018-12-13T03:16:48.572Z,8.65
2018-12-13T03:19:17.038Z,8.60
2018-12-13T03:21:45.384Z,8.15
2018-12-13T03:24:13.760Z,9.10
2018-12-13T03:26:42.094Z,8.93
2018-12-13T03:29:10.666Z,8.58
2018-12-13T03:31:39.026Z,8.88
2018-12-13T03:34:07.464Z,9.43
2018-12-13T03:36:35.780Z,8.03
2018-12-13T03:39:06.400Z,8.50
2018-12-13T03:41:34.760Z,8.68
2018-12-13T03:44:04.226Z,8.53
2018-12-13T03:46:32.757Z,9.33
2018-12-13T03:49:01.145Z,7.58
2018-12-13T03:51:29.487Z,7.97
2018-12-13T03:53:57.813Z,8.50
2018-12-13T03:56:26.204Z,9.50
2018-12-13T03:58:54.619Z,8.75
2018-12-13T04:01:22.955Z,8.90
2018-12-13T04:03:51.497Z,9.58
2018-12-13T04:06:19.824Z,9.55
2018-12-13T04:08:48.191Z,9.45
2018-12-13T04:11:16.703Z,9.50
2018-12-13T04:13:45.081Z,9.43
2018-12-13T04:16:13.429Z,11.20
2018-12-13T04:18:41.768Z,8.73
2018-12-13T04:21:10.100Z,9.35
2018-12-13T04:23:38.456Z,8.43
2018-12-13T04:26:06.902Z,8.78
2018-12-13T04:28:35.484Z,10.18
2018-12-13T04:31:03.867Z,9.43
2018-12-13T04:33:32.207Z,8.90
2018-12-13T04:36:00.564Z,9.38
2018-12-13T04:38:28.934Z,8.93
2018-12-13T04:40:57.383Z,10.68
2018-12-13T04:43:25.827Z,8.68
2018-12-13T04:45:54.284Z,11.25
2018-12-13T04:48:22.612Z,10.00
2018-12-13T04:50:50.952Z,10.25
2018-12-13T04:53:19.279Z,7.67
2018-12-13T04:55:47.639Z,8.53
2018-12-13T04:58:15.983Z,10.10
2018-12-13T05:00:44.352Z,9.93
2018-12-13T05:03:12.664Z,10.88
2018-12-13T05:05:41.102Z,10.35
2018-12-13T05:08:09.440Z,10.32
2018-12-13T05:10:52.040Z,10.05
2018-12-13T05:13:20.385Z,11.65
2018-12-13T05:15:48.845Z,10.93
2018-12-13T05:18:17.160Z,9.05
2018-12-13T05:20:45.588Z,11.03
2018-12-13T05:23:13.940Z,11.18
2018-12-13T05:25:42.396Z,8.25
2018-12-13T05:28:10.728Z,10.98
2018-12-13T05:30:39.107Z,10.98
2018-12-13T05:33:07.436Z,9.85
2018-12-13T05:35:35.858Z,8.73
2018-12-13T05:38:04.196Z,9.65
2018-12-13T05:40:32.588Z,8.90
2018-12-13T05:43:00.944Z,11.22
2018-12-13T05:45:29.319Z,10.03
2018-12-13T05:47:57.635Z,9.35
2018-12-13T05:50:25.971Z,9.78
2018-12-13T05:52:54.340Z,9.20
2018-12-13T05:55:22.732Z,10.30
2018-12-13T05:57:51.055Z,10.35
2018-12-13T06:00:19.459Z,9.90
2018-12-13T06:02:47.947Z,10.65
2018-12-13T06:05:16.352Z,10.53
2018-12-13T06:07:44.722Z,10.15
2018-12-13T06:10:13.075Z,11.18
2018-12-13T06:12:41.391Z,11.40
2018-12-13T06:15:09.776Z,10.43
2018-12-13T06:17:38.133Z,9.60
2018-12-13T06:20:06.541Z,10.50
2018-12-13T06:22:34.868Z,10.23
2018-12-13T06:25:03.225Z,10.20
2018-12-13T06:27:31.545Z,10.70
2018-12-13T06:29:59.880Z,9.88
2018-12-13T06:32:28.247Z,11.15
2018-12-13T06:34:56.652Z,10.30
2018-12-13T06:37:25.141Z,9.70
2018-12-13T06:39:53.504Z,10.13
2018-12-13T06:42:21.914Z,9.93
2018-12-13T06:44:50.295Z,10.58
2018-12-13T06:47:18.665Z,10.60
2018-12-13T06:49:46.985Z,9.83
2018-12-13T06:52:15.417Z,10.25
2018-12-13T06:54:43.767Z,12.47
2018-12-13T06:57:12.904Z,10.60
2018-12-13T06:59:41.279Z,11.22
2018-12-13T07:02:09.629Z,9.58
2018-12-13T07:04:37.977Z,11.25
2018-12-13T07:07:06.340Z,10.93
2018-12-13T07:09:34.667Z,11.57
2018-12-13T07:12:03.052Z,11.70
2018-12-13T07:14:31.381Z,10.03
2018-12-13T07:16:59.784Z,10.63
2018-12-13T07:19:28.132Z,10.68
2018-12-13T07:21:56.474Z,10.08
2018-12-13T07:24:24.939Z,10.85
2018-12-13T07:26:53.470Z,9.85
2018-12-13T07:29:21.896Z,9.80
2018-12-13T07:31:50.272Z,11.78
2018-12-13T07:34:18.607Z,11.15
2018-12-13T07:36:47.024Z,9.90
2018-12-13T07:39:15.385Z,11.75
2018-12-13T07:41:44.239Z,10.95
2018-12-13T07:44:12.651Z,9.28
2018-12-13T07:46:41.020Z,10.80
2018-12-13T07:49:09.339Z,10.55
2018-12-13T07:51:37.719Z,10.30
2018-12-13T07:54:06.074Z,11.50
2018-12-13T07:56:34.449Z,10.58
2018-12-13T07:59:02.841Z,11.08
2018-12-13T08:01:32.553Z,9.95
2018-12-13T08:04:01.036Z,12.00
2018-12-13T08:06:29.492Z,10.10
2018-12-13T08:08:57.936Z,10.45
2018-12-13T08:11:26.272Z,10.30
2018-12-13T08:13:54.749Z,10.48
2018-12-13T08:16:23.165Z,10.32
2018-12-13T08:18:51.576Z,9.00
2018-12-13T08:21:19.928Z,10.03
2018-12-13T08:23:48.276Z,11.80
2018-12-13T08:26:16.621Z,10.85
2018-12-13T08:28:45.313Z,10.20
2018-12-13T08:31:13.653Z,7.95
2018-12-13T08:33:41.988Z,11.45
2018-12-13T08:36:10.352Z,9.90
2018-12-13T08:38:38.755Z,11.45
2018-12-13T08:41:07.076Z,10.80
2018-12-13T08:43:35.404Z,12.73
2018-12-13T08:46:03.786Z,9.90
2018-12-13T08:48:32.131Z,14.55
2018-12-13T08:51:00.517Z,11.88
2018-12-13T08:53:29.060Z,12.65
2018-12-13T08:55:57.390Z,10.75
2018-12-13T08:58:25.711Z,5.75
2018-12-13T09:00:54.216Z,10.85
2018-12-13T09:03:22.538Z,11.22
2018-12-13T09:05:50.904Z,10.88
2018-12-13T09:08:19.377Z,11.40
2018-12-13T09:10:47.758Z,11.48
2018-12-13T09:13:16.315Z,11.00
2018-12-13T09:15:44.779Z,12.13
2018-12-13T09:18:13.197Z,12.98
2018-12-13T09:20:42.069Z,12.33
2018-12-13T09:23:10.488Z,10.80
2018-12-13T09:25:38.888Z,9.25
2018-12-13T09:28:07.232Z,12.13
2018-12-13T09:30:35.572Z,11.25
2018-12-13T09:33:03.980Z,13.58
2018-12-13T09:35:32.343Z,11.35
2018-12-13T09:38:01.597Z,11.80
2018-12-13T09:40:29.983Z,11.93
2018-12-13T09:42:58.328Z,12.65
2018-12-13T09:45:26.691Z,12.80
2018-12-13T09:47:55.080Z,11.03
2018-12-13T09:50:23.415Z,12.07
2018-12-13T09:52:52.192Z,10.65
2018-12-13T09:55:20.567Z,10.63
2018-12-13T09:57:48.916Z,11.63
2018-12-13T10:00:17.231Z,11.53
2018-12-13T10:02:45.640Z,11.75
2018-12-13T10:05:13.971Z,12.50
2018-12-13T10:07:42.447Z,12.58
2018-12-13T10:10:11.037Z,12.37
2018-12-13T10:12:39.372Z,11.70
2018-12-13T10:15:07.755Z,11.83
2018-12-13T10:17:36.097Z,13.03
2018-12-13T10:20:04.663Z,12.75
2018-12-13T10:22:32.967Z,12.45
2018-12-13T10:25:01.352Z,13.43
2018-12-13T10:27:29.719Z,11.55
2018-12-13T10:29:58.075Z,12.60
2018-12-13T10:32:26.424Z,12.43
2018-12-13T10:34:55.015Z,11.70
2018-12-13T10:37:23.377Z,12.85
2018-12-13T10:39:51.753Z,11.88
2018-12-13T10:42:20.096Z,12.95
2018-12-13T10:44:48.462Z,8.18
2018-12-13T10:47:16.842Z,12.88
2018-12-13T10:49:45.396Z,12.53
2018-12-13T10:52:13.736Z,13.75
2018-12-13T10:54:42.273Z,13.90
2018-12-13T10:57:10.591Z,14.50
2018-12-13T10:59:38.926Z,15.03
2018-12-13T11:02:11.521Z,13.93
2018-12-13T11:04:39.873Z,12.13
2018-12-13T11:07:08.294Z,14.18
2018-12-13T11:09:36.683Z,12.70
2018-12-13T11:12:05.071Z,13.25
2018-12-13T11:14:33.444Z,12.37
2018-12-13T11:17:01.778Z,12.93
2018-12-13T11:19:30.120Z,13.08
2018-12-13T11:21:58.688Z,12.40
2018-12-13T11:24:27.036Z,13.38
2018-12-13T11:26:56.455Z,14.35
2018-12-13T11:29:36.069Z,14.45
2018-12-13T11:32:04.420Z,13.40
2018-12-13T11:34:32.827Z,13.32
2018-12-13T11:37:01.400Z,13.60
2018-12-13T11:39:29.705Z,11.68
2018-12-13T11:41:58.087Z,13.20
2018-12-13T11:44:26.623Z,13.65
2018-12-13T11:46:54.980Z,12.85
2018-12-13T11:49:23.419Z,10.40
2018-12-13T11:51:52.013Z,13.83
2018-12-13T11:54:45.833Z,15.25
2018-12-13T11:57:14.240Z,13.40
2018-12-13T11:59:42.586Z,13.75
2018-12-13T12:02:11.167Z,15.32
2018-12-13T12:04:39.563Z,13.50
2018-12-13T12:07:07.916Z,13.60
2018-12-13T12:09:36.534Z,14.07
2018-12-13T12:12:04.919Z,13.45
2018-12-13T12:14:33.399Z,14.35
2018-12-13T12:17:01.770Z,14.58
2018-12-13T12:19:30.138Z,14.58
2018-12-13T12:21:58.473Z,13.20
2018-12-13T12:24:27.060Z,13.98
2018-12-13T12:26:55.422Z,13.08
2018-12-13T12:29:23.869Z,13.25
2018-12-13T12:31:52.206Z,13.43
2018-12-13T12:34:20.561Z,14.30
2018-12-13T12:36:49.029Z,15.58
2018-12-13T12:39:18.699Z,15.63
2018-12-13T12:41:47.380Z,14.60
2018-12-13T12:44:15.943Z,15.72
2018-12-13T12:46:44.305Z,14.83
2018-12-13T12:49:12.660Z,12.80
2018-12-13T12:51:41.116Z,12.80
2018-12-13T12:54:09.496Z,15.32
2018-12-13T12:56:37.900Z,14.68
2018-12-13T12:59:06.240Z,16.42
2018-12-13T13:01:34.584Z,13.20
2018-12-13T13:04:03.227Z,13.62
2018-12-13T13:06:31.567Z,14.33
2018-12-13T13:08:59.912Z,13.90
2018-12-13T13:11:29.229Z,13.93
2018-12-13T13:13:57.664Z,14.60
2018-12-13T13:16:26.027Z,15.20
2018-12-13T13:18:54.495Z,16.70
2018-12-13T13:21:22.822Z,14.18
2018-12-13T13:23:51.259Z,13.75
2018-12-13T13:26:19.712Z,14.40
2018-12-13T13:28:48.062Z,15.70
2018-12-13T13:31:16.603Z,14.45
2018-12-13T13:33:45.000Z,13.40
2018-12-13T13:36:13.368Z,15.13
2018-12-13T13:38:41.767Z,14.75
2018-12-13T13:41:10.095Z,16.23
2018-12-13T13:43:38.467Z,11.75
2018-12-13T13:46:06.853Z,15.68
2018-12-13T13:48:35.188Z,15.35
2018-12-13T13:51:03.511Z,8.88
2018-12-13T13:53:31.912Z,14.28
2018-12-13T13:56:00.492Z,14.73
2018-12-13T13:58:28.951Z,13.18
2018-12-13T14:00:57.284Z,8.98
2018-12-13T14:03:25.685Z,15.90
2018-12-13T14:05:54.036Z,16.35
2018-12-13T14:08:22.391Z,16.48
2018-12-13T14:10:50.765Z,16.07
2018-12-13T14:13:19.128Z,14.83
2018-12-13T14:15:47.612Z,13.88
2018-12-13T14:18:15.944Z,13.83
2018-12-13T14:20:44.469Z,15.25
2018-12-13T14:23:12.943Z,16.10
2018-12-13T14:25:42.663Z,15.65
2018-12-13T14:28:11.997Z,15.60
2018-12-13T14:30:40.368Z,14.98
2018-12-13T14:33:08.812Z,15.08
2018-12-13T14:35:37.202Z,14.25
2018-12-13T14:38:05.567Z,15.53
2018-12-13T14:40:34.152Z,15.28
2018-12-13T14:43:02.515Z,14.90
2018-12-13T14:45:30.873Z,15.50
2018-12-13T14:47:59.331Z,14.25
2018-12-13T14:50:27.755Z,15.13
2018-12-13T14:52:56.114Z,14.00
2018-12-13T14:55:24.514Z,13.58
2018-12-13T14:57:52.940Z,13.68
2018-12-13T15:00:21.341Z,13.53
2018-12-13T15:02:49.719Z,15.50
2018-12-13T15:05:18.429Z,12.95
2018-12-13T15:07:47.056Z,14.25
2018-12-13T15:10:15.514Z,14.85
2018-12-13T15:12:43.892Z,13.40
2018-12-13T15:15:12.466Z,10.48
2018-12-13T15:17:40.800Z,15.13
2018-12-13T15:20:09.147Z,14.83
2018-12-13T15:22:37.597Z,13.30
2018-12-13T15:25:05.935Z,12.40
2018-12-13T15:27:34.271Z,13.62
2018-12-13T15:30:02.687Z,12.73
2018-12-13T15:32:31.035Z,12.30
2018-12-13T15:34:59.512Z,12.25
2018-12-13T15:37:27.908Z,13.38
2018-12-13T15:39:57.402Z,12.03
2018-12-13T15:42:25.875Z,8.63
2018-12-13T15:44:54.272Z,14.53
2018-12-13T15:47:22.604Z,13.32
2018-12-13T15:49:51.265Z,12.20
2018-12-13T15:52:19.758Z,14.70
2018-12-13T15:54:48.169Z,13.60
2018-12-13T15:57:16.504Z,13.53
2018-12-13T15:59:44.872Z,12.88
2018-12-13T16:02:13.387Z,12.40
2018-12-13T16:04:41.800Z,12.47
2018-12-13T16:07:10.157Z,13.35
2018-12-13T16:09:38.496Z,12.55
2018-12-13T16:12:07.039Z,12.07
2018-12-13T16:14:35.355Z,12.43
2018-12-13T16:17:03.765Z,12.68
2018-12-13T16:19:32.174Z,13.98
2018-12-13T16:22:00.663Z,14.65
2018-12-13T16:24:29.615Z,13.28
2018-12-13T16:26:57.999Z,13.88
2018-12-13T16:29:26.560Z,12.82
2018-12-13T16:31:54.937Z,12.00
2018-12-13T16:34:23.482Z,14.05
2018-12-13T16:36:51.874Z,13.90
2018-12-13T16:39:20.301Z,12.58
2018-12-13T16:41:48.729Z,12.23
2018-12-13T16:44:17.170Z,12.95
2018-12-13T16:46:45.523Z,11.35
2018-12-13T16:49:13.939Z,13.95
2018-12-13T16:51:42.288Z,12.73
2018-12-13T16:54:10.649Z,14.35
2018-12-13T16:56:39.212Z,13.22
2018-12-13T16:59:07.579Z,12.50
2018-12-13T17:01:35.907Z,13.03
2018-12-13T17:04:04.315Z,14.70
2018-12-13T17:06:32.795Z,14.18
2018-12-13T17:09:01.167Z,13.35
2018-12-13T17:11:29.589Z,14.13
2018-12-13T17:13:57.979Z,13.35
2018-12-13T17:16:26.418Z,14.13
2018-12-13T17:18:54.900Z,13.22
2018-12-13T17:21:23.271Z,13.22
2018-12-13T17:23:51.669Z,13.68
2018-12-13T17:26:20.102Z,12.55
2018-12-13T17:28:48.478Z,13.10
2018-12-13T17:31:16.860Z,13.03
2018-12-13T17:33:45.845Z,12.90
2018-12-13T17:36:14.256Z,13.38
2018-12-13T17:38:42.624Z,14.25
2018-12-13T17:41:11.052Z,11.45
2018-12-13T17:43:39.629Z,13.50
2018-12-13T17:46:08.044Z,14.00
2018-12-13T17:48:36.376Z,12.63
2018-12-13T17:51:04.739Z,12.90
2018-12-13T17:53:33.296Z,12.43
2018-12-13T17:56:01.651Z,12.80
2018-12-13T17:58:30.103Z,13.30
2018-12-13T18:00:58.473Z,13.22
2018-12-13T18:03:26.858Z,14.50
2018-12-13T18:05:55.227Z,13.15
2018-12-13T18:08:23.628Z,12.47
2018-12-13T18:10:51.997Z,12.88
2018-12-13T18:13:20.356Z,12.10
2018-12-13T18:15:48.733Z,13.32
2018-12-13T18:18:17.228Z,13.28
2018-12-13T18:20:45.713Z,13.65
2018-12-13T18:23:14.115Z,12.30
2018-12-13T18:25:42.746Z,12.58
2018-12-13T18:28:11.372Z,13.85
2018-12-13T18:30:39.783Z,13.32
2018-12-13T18:33:08.152Z,13.13
2018-12-13T18:35:36.520Z,12.93
2018-12-13T18:38:04.969Z,13.85
2018-12-13T18:40:35.679Z,13.35
2018-12-13T18:43:03.680Z,14.03
2018-12-13T18:45:36.927Z,12.43
2018-12-13T18:48:06.396Z,13.32
2018-12-13T18:50:35.043Z,14.10
2018-12-13T18:53:03.396Z,13.83
2018-12-13T18:55:31.752Z,12.98
2018-12-13T18:58:00.275Z,12.95
2018-12-13T19:00:28.692Z,13.53
2018-12-13T19:02:57.180Z,14.15
2018-12-13T19:05:25.580Z,12.90
2018-12-13T19:07:53.959Z,13.72
2018-12-13T19:10:23.035Z,12.95
2018-12-13T19:12:51.871Z,12.58
2018-12-13T19:15:20.299Z,14.03
2018-12-13T19:17:48.748Z,12.53
2018-12-13T19:20:17.207Z,13.50
2018-12-13T19:22:45.572Z,14.50
2018-12-13T19:25:14.028Z,12.20
2018-12-13T19:27:42.431Z,13.22
2018-12-13T19:30:10.827Z,11.50
2018-12-13T19:32:39.485Z,13.55
2018-12-13T19:35:07.838Z,13.05
2018-12-13T19:37:36.277Z,12.78
2018-12-13T19:40:05.037Z,12.25
2018-12-13T19:42:33.549Z,13.70
2018-12-13T19:45:01.908Z,13.13
2018-12-13T19:47:30.292Z,12.15
2018-12-13T19:49:59.020Z,12.50
2018-12-13T19:52:27.490Z,13.10
2018-12-13T19:54:55.931Z,13.10
2018-12-13T19:57:24.367Z,13.48
2018-12-13T19:59:52.716Z,13.58
2018-12-13T20:02:21.276Z,12.68
2018-12-13T20:04:50.587Z,12.40
2018-12-13T20:07:18.977Z,11.75
2018-12-13T20:09:47.364Z,13.08
2018-12-13T20:12:15.749Z,12.60
2018-12-13T20:14:44.159Z,12.13
2018-12-13T20:17:12.572Z,13.48
2018-12-13T20:19:40.915Z,13.13
2018-12-13T20:22:09.428Z,13.78
2018-12-13T20:24:37.773Z,12.20
2018-12-13T20:27:06.339Z,14.10
2018-12-13T20:29:34.829Z,13.18
2018-12-13T20:32:03.272Z,14.63
2018-12-13T20:34:31.700Z,14.38
2018-12-13T20:37:01.549Z,13.03
2018-12-13T20:39:29.900Z,13.65
2018-12-13T20:41:58.295Z,13.90
2018-12-13T20:44:26.976Z,13.20
2018-12-13T20:46:55.340Z,12.45
2018-12-13T20:49:23.788Z,13.03
2018-12-13T20:51:52.144Z,13.38
2018-12-13T20:54:20.544Z,13.45
2018-12-13T20:56:48.944Z,14.25
2018-12-13T20:59:17.376Z,12.25
2018-12-13T21:01:45.816Z,13.83
2018-12-13T21:04:14.389Z,11.90
2018-12-13T21:06:44.803Z,13.32
2018-12-13T21:09:13.188Z,13.45
2018-12-13T21:11:41.565Z,13.28
2018-12-13T21:14:10.883Z,13.83
2018-12-13T21:16:39.312Z,13.90
2018-12-13T21:19:07.727Z,12.95
2018-12-13T21:21:36.141Z,14.10
2018-12-13T21:24:04.695Z,13.15
2018-12-13T21:26:33.056Z,13.10
2018-12-13T21:29:01.493Z,13.78
2018-12-13T21:31:29.845Z,12.73
2018-12-13T21:33:58.356Z,13.72
2018-12-13T21:36:26.751Z,14.90
2018-12-13T21:38:55.137Z,13.48
2018-12-13T21:41:23.537Z,14.65
2018-12-13T21:43:52.003Z,13.38
2018-12-13T21:46:20.379Z,15.32
2018-12-13T21:48:48.791Z,12.68
2018-12-13T21:51:17.146Z,12.98
2018-12-13T21:53:45.550Z,14.47
2018-12-13T21:56:13.895Z,14.75
2018-12-13T21:58:42.430Z,12.15
2018-12-13T22:01:10.803Z,14.70
2018-12-13T22:03:39.339Z,12.05
2018-12-13T22:06:08.218Z,13.83
2018-12-13T22:08:36.658Z,14.05
2018-12-13T22:11:05.175Z,14.07
2018-12-13T22:13:33.575Z,14.38
2018-12-13T22:16:01.960Z,14.55
2018-12-13T22:18:30.584Z,14.05
2018-12-13T22:20:59.076Z,14.25
2018-12-13T22:23:27.425Z,14.75
2018-12-13T22:25:55.833Z,14.20
2018-12-13T22:28:24.259Z,13.58
2018-12-13T22:30:52.591Z,13.25
2018-12-13T22:33:20.973Z,14.73
2018-12-13T22:35:49.489Z,14.25
2018-12-13T22:38:17.898Z,15.25
2018-12-13T22:40:46.239Z,12.80
2018-12-13T22:43:20.440Z,15.08
2018-12-13T22:45:45.384Z,14.90
2018-12-13T22:48:13.736Z,14.40
2018-12-13T22:50:42.103Z,15.00
2018-12-13T22:53:10.532Z,12.45
2018-12-13T22:55:38.905Z,14.87
2018-12-13T22:58:07.248Z,15.03
2018-12-13T23:00:35.685Z,13.90
2018-12-13T23:03:04.661Z,13.38
2018-12-13T23:05:34.008Z,12.93
2018-12-13T23:08:02.592Z,14.10
2018-12-13T23:10:31.202Z,14.00
2018-12-13T23:12:59.544Z,13.43
2018-12-13T23:15:27.951Z,15.28
2018-12-13T23:17:56.496Z,13.53
2018-12-13T23:20:24.836Z,14.03
2018-12-13T23:22:53.808Z,14.73
2018-12-13T23:25:22.159Z,16.05
2018-12-13T23:27:50.725Z,14.20
2018-12-13T23:30:19.092Z,15.30
2018-12-13T23:32:48.002Z,13.85
2018-12-13T23:35:16.632Z,13.90
2018-12-13T23:37:44.969Z,14.53
2018-12-13T23:40:13.387Z,13.85
2018-12-13T23:42:41.744Z,13.13
2018-12-13T23:45:10.992Z,15.38
2018-12-13T23:47:39.348Z,15.25
2018-12-13T23:50:07.711Z,14.25
2018-12-13T23:52:37.051Z,13.88
2018-12-13T23:55:05.395Z,15.53
2018-12-13T23:57:33.735Z,13.95
